createdAt,value
2019-03-26T00:01:20.420Z,82.15
2019-03-26T00:04:14.748Z,82.67
2019-03-26T00:06:47.265Z,82.64
2019-03-26T00:09:19.773Z,82.75
2019-03-26T00:11:52.322Z,82.86
2019-03-26T00:14:24.886Z,82.54
2019-03-26T00:16:57.380Z,82.67
2019-03-26T00:19:29.899Z,82.19
2019-03-26T00:22:02.392Z,82.41
2019-03-26T00:24:34.917Z,82.58
2019-03-26T00:27:07.913Z,83.04
2019-03-26T00:29:40.610Z,82.81
2019-03-26T00:32:13.171Z,82.69
2019-03-26T00:34:45.656Z,81.63
2019-03-26T00:37:18.144Z,81.80
2019-03-26T00:39:50.663Z,82.12
2019-03-26T00:42:23.179Z,82.21
2019-03-26T00:44:55.680Z,81.76
2019-03-26T00:47:28.168Z,82.09
2019-03-26T00:50:00.729Z,81.73
2019-03-26T00:52:33.218Z,81.92
2019-03-26T00:55:06.340Z,81.89
2019-03-26T00:57:38.855Z,81.88
2019-03-26T01:00:11.737Z,81.69
2019-03-26T01:02:44.217Z,81.63
2019-03-26T01:05:16.761Z,81.57
2019-03-26T01:07:49.272Z,81.91
2019-03-26T01:10:26.383Z,81.74
2019-03-26T01:12:58.844Z,81.72
2019-03-26T01:15:31.298Z,81.52
2019-03-26T01:18:03.877Z,81.31
2019-03-26T01:20:36.361Z,81.34
2019-03-26T01:23:08.846Z,81.56
2019-03-26T01:25:41.322Z,82.12
2019-03-26T01:28:13.802Z,81.78
2019-03-26T01:30:46.247Z,81.46
2019-03-26T01:33:18.739Z,81.83
2019-03-26T01:35:51.267Z,81.93
2019-03-26T01:38:23.733Z,82.12
2019-03-26T01:40:56.238Z,81.76
2019-03-26T01:43:28.735Z,81.77
2019-03-26T01:46:01.212Z,81.68
2019-03-26T01:48:33.698Z,81.62
2019-03-26T01:51:06.203Z,81.49
2019-03-26T01:53:38.723Z,81.45
2019-03-26T01:56:11.211Z,81.02
2019-03-26T01:58:43.711Z,80.48
2019-03-26T02:01:16.225Z,80.72
2019-03-26T02:03:48.738Z,80.95
2019-03-26T02:06:21.268Z,80.81
2019-03-26T02:08:53.744Z,80.92
2019-03-26T02:11:26.241Z,80.79
2019-03-26T02:13:58.752Z,81.25
2019-03-26T02:16:31.239Z,80.78
2019-03-26T02:19:03.771Z,80.96
2019-03-26T02:21:36.253Z,80.97
2019-03-26T02:24:08.769Z,81.43
2019-03-26T02:26:41.248Z,81.77
2019-03-26T02:29:13.769Z,81.71
2019-03-26T02:31:46.251Z,81.43
2019-03-26T02:34:19.881Z,81.59
2019-03-26T02:36:52.471Z,81.68
2019-03-26T02:39:25.443Z,81.57
2019-03-26T02:41:58.183Z,81.10
2019-03-26T02:44:30.692Z,81.30
2019-03-26T02:47:03.178Z,81.03
2019-03-26T02:49:35.731Z,81.17
2019-03-26T02:52:08.206Z,81.43
2019-03-26T02:54:40.823Z,81.40
2019-03-26T02:57:13.298Z,81.49
2019-03-26T02:59:45.866Z,81.24
2019-03-26T03:02:18.393Z,81.34
2019-03-26T03:04:50.900Z,81.59
2019-03-26T03:07:23.369Z,81.40
2019-03-26T03:09:55.895Z,81.62
2019-03-26T03:12:28.359Z,81.71
2019-03-26T03:15:00.882Z,81.77
2019-03-26T03:17:33.357Z,81.46
2019-03-26T03:20:05.929Z,81.74
2019-03-26T03:22:38.406Z,81.74
2019-03-26T03:25:11.001Z,81.62
2019-03-26T03:27:43.566Z,81.70
2019-03-26T03:30:16.307Z,81.82
2019-03-26T03:32:48.808Z,81.88
2019-03-26T03:35:21.301Z,81.77
2019-03-26T03:37:53.807Z,81.64
2019-03-26T03:40:26.302Z,81.66
2019-03-26T03:42:58.809Z,81.42
2019-03-26T03:45:31.318Z,81.68
2019-03-26T03:48:04.058Z,81.97
2019-03-26T03:50:37.093Z,81.82
2019-03-26T03:53:09.990Z,81.91
2019-03-26T03:55:42.463Z,82.09
2019-03-26T03:58:15.666Z,81.93
2019-03-26T04:00:48.155Z,81.73
2019-03-26T04:03:20.682Z,81.70
2019-03-26T04:06:08.086Z,82.00
2019-03-26T04:08:27.601Z,82.01
2019-03-26T04:11:00.076Z,81.85
2019-03-26T04:13:32.562Z,81.94
2019-03-26T04:16:05.046Z,82.02
2019-03-26T04:18:37.575Z,81.88
2019-03-26T04:21:10.058Z,82.22
2019-03-26T04:23:42.544Z,82.38
2019-03-26T04:26:15.041Z,82.34
2019-03-26T04:28:47.553Z,82.03
2019-03-26T04:31:20.029Z,81.58
2019-03-26T04:33:52.523Z,81.47
2019-03-26T04:36:26.470Z,81.43
2019-03-26T04:38:59.181Z,81.24
2019-03-26T04:41:31.705Z,81.23
2019-03-26T04:44:04.218Z,80.61
2019-03-26T04:46:36.699Z,80.89
2019-03-26T04:49:09.210Z,80.69
2019-03-26T04:51:41.736Z,80.91
2019-03-26T04:54:14.247Z,81.12
2019-03-26T04:56:46.723Z,81.43
2019-03-26T04:59:19.233Z,81.58
2019-03-26T05:01:51.728Z,81.42
2019-03-26T05:04:24.217Z,81.82
2019-03-26T05:06:56.729Z,81.89
2019-03-26T05:09:29.193Z,81.47
2019-03-26T05:12:01.701Z,81.22
2019-03-26T05:14:34.236Z,80.72
2019-03-26T05:17:06.704Z,80.92
2019-03-26T05:19:39.230Z,81.35
2019-03-26T05:22:23.663Z,81.30
2019-03-26T05:24:46.123Z,80.75
2019-03-26T05:27:18.626Z,80.87
2019-03-26T05:29:51.141Z,80.69
2019-03-26T05:32:23.620Z,80.79
2019-03-26T05:34:56.147Z,80.80
2019-03-26T05:37:28.648Z,80.24
2019-03-26T05:40:01.155Z,80.22
2019-03-26T05:42:33.670Z,80.24
2019-03-26T05:45:07.318Z,80.59
2019-03-26T05:47:39.881Z,80.52
2019-03-26T05:50:13.385Z,80.64
2019-03-26T05:52:45.952Z,81.00
2019-03-26T05:55:18.442Z,81.09
2019-03-26T05:57:50.978Z,80.69
2019-03-26T06:00:25.415Z,81.23
2019-03-26T06:02:57.943Z,81.14
2019-03-26T06:05:30.443Z,80.76
2019-03-26T06:08:02.991Z,80.75
2019-03-26T06:10:35.610Z,80.83
2019-03-26T06:13:08.119Z,79.96
2019-03-26T06:15:40.655Z,80.52
2019-03-26T06:18:13.215Z,80.30
2019-03-26T06:20:45.728Z,79.90
2019-03-26T06:23:18.243Z,79.39
2019-03-26T06:25:50.760Z,79.24
2019-03-26T06:28:23.268Z,79.00
2019-03-26T06:30:55.833Z,78.91
2019-03-26T06:33:28.345Z,78.29
2019-03-26T06:36:00.856Z,78.53
2019-03-26T06:38:33.360Z,78.93
2019-03-26T06:41:05.863Z,78.55
2019-03-26T06:43:38.401Z,78.99
2019-03-26T06:46:10.893Z,79.44
2019-03-26T06:48:43.448Z,79.52
2019-03-26T06:51:15.978Z,79.57
2019-03-26T06:53:48.496Z,79.55
2019-03-26T06:56:20.977Z,79.65
2019-03-26T06:58:53.496Z,79.86
2019-03-26T07:01:26.005Z,79.86
2019-03-26T07:03:58.513Z,79.38
2019-03-26T07:06:30.991Z,79.01
2019-03-26T07:09:06.065Z,78.71
2019-03-26T07:11:38.562Z,79.31
2019-03-26T07:14:11.093Z,79.05
2019-03-26T07:16:43.581Z,78.96
2019-03-26T07:19:16.093Z,78.84
2019-03-26T07:21:49.859Z,79.40
2019-03-26T07:24:22.676Z,79.22
2019-03-26T07:26:55.163Z,79.11
2019-03-26T07:29:27.685Z,79.37
2019-03-26T07:32:00.166Z,79.27
2019-03-26T07:34:32.688Z,79.24
2019-03-26T07:37:05.162Z,78.69
2019-03-26T07:39:39.075Z,78.14
2019-03-26T07:42:11.689Z,77.93
2019-03-26T07:44:45.595Z,77.57
2019-03-26T07:47:18.286Z,77.46
2019-03-26T07:49:50.893Z,77.48
2019-03-26T07:52:23.427Z,77.17
2019-03-26T07:54:55.943Z,76.68
2019-03-26T07:57:28.484Z,77.31
2019-03-26T08:00:00.966Z,77.52
2019-03-26T08:02:33.464Z,77.49
2019-03-26T08:05:06.474Z,77.45
2019-03-26T08:07:39.004Z,77.71
2019-03-26T08:10:11.615Z,77.50
2019-03-26T08:12:44.174Z,76.68
2019-03-26T08:15:16.696Z,77.55
2019-03-26T08:17:49.312Z,77.30
2019-03-26T08:20:21.815Z,76.50
2019-03-26T08:22:54.365Z,76.87
2019-03-26T08:25:26.903Z,76.16
2019-03-26T08:27:59.451Z,76.28
2019-03-26T08:30:31.939Z,75.34
2019-03-26T08:33:04.469Z,75.27
2019-03-26T08:35:36.963Z,73.31
2019-03-26T08:38:12.931Z,74.12
2019-03-26T08:40:43.942Z,72.97
2019-03-26T08:43:16.450Z,73.18
2019-03-26T08:45:48.943Z,73.65
2019-03-26T08:48:21.479Z,73.57
2019-03-26T08:50:54.028Z,72.05
2019-03-26T08:53:26.545Z,72.16
2019-03-26T08:55:59.027Z,71.45
2019-03-26T08:58:31.552Z,71.47
2019-03-26T09:01:04.208Z,71.31
2019-03-26T09:03:36.739Z,70.45
2019-03-26T09:06:09.267Z,69.12
2019-03-26T09:08:41.760Z,68.54
2019-03-26T09:11:14.270Z,67.35
2019-03-26T09:13:46.789Z,67.51
2019-03-26T09:16:19.293Z,65.87
2019-03-26T09:18:51.801Z,66.70
2019-03-26T09:21:24.320Z,66.05
2019-03-26T09:23:56.897Z,66.36
2019-03-26T09:26:29.404Z,65.83
2019-03-26T09:29:01.934Z,66.06
2019-03-26T09:31:34.424Z,65.28
2019-03-26T09:34:09.822Z,65.00
2019-03-26T09:36:41.364Z,65.17
2019-03-26T09:39:13.888Z,64.51
2019-03-26T09:41:46.410Z,65.08
2019-03-26T09:44:18.970Z,65.07
2019-03-26T09:46:51.481Z,65.02
2019-03-26T09:49:23.985Z,63.98
2019-03-26T09:51:56.580Z,62.56
2019-03-26T09:54:29.097Z,63.08
2019-03-26T09:57:01.606Z,63.75
2019-03-26T09:59:34.295Z,61.94
2019-03-26T10:02:06.797Z,62.16
2019-03-26T10:04:39.347Z,61.52
2019-03-26T10:07:21.319Z,61.21
2019-03-26T10:09:46.337Z,59.07
2019-03-26T10:12:18.809Z,59.27
2019-03-26T10:14:51.328Z,58.24
2019-03-26T10:17:23.821Z,58.08
2019-03-26T10:19:56.337Z,56.51
2019-03-26T10:22:28.809Z,57.43
2019-03-26T10:25:01.353Z,57.67
2019-03-26T10:27:35.212Z,55.69
2019-03-26T10:30:09.095Z,56.37
2019-03-26T10:32:41.618Z,55.84
2019-03-26T10:35:14.266Z,56.52
2019-03-26T10:37:46.773Z,56.14
2019-03-26T10:40:28.954Z,57.21
2019-03-26T10:43:01.558Z,57.55
2019-03-26T10:45:34.110Z,56.74
2019-03-26T10:48:06.601Z,56.31
2019-03-26T10:50:39.150Z,56.34
2019-03-26T10:53:11.686Z,55.20
2019-03-26T10:55:44.169Z,54.51
2019-03-26T10:58:16.658Z,54.10
2019-03-26T11:00:49.166Z,52.79
2019-03-26T11:03:21.669Z,52.08
2019-03-26T11:05:54.168Z,51.96
2019-03-26T11:08:26.719Z,50.80
2019-03-26T11:10:59.255Z,48.50
2019-03-26T11:13:31.795Z,49.18
2019-03-26T11:16:04.282Z,47.97
2019-03-26T11:18:36.809Z,48.94
2019-03-26T11:21:09.283Z,49.41
2019-03-26T11:23:41.870Z,50.19
2019-03-26T11:26:14.355Z,50.19
2019-03-26T11:28:46.878Z,50.27
2019-03-26T11:31:19.498Z,49.25
2019-03-26T11:33:51.999Z,50.06
2019-03-26T11:36:24.500Z,50.97
2019-03-26T11:38:57.043Z,51.15
2019-03-26T11:41:29.531Z,50.75
2019-03-26T11:44:04.585Z,49.19
2019-03-26T11:46:36.467Z,50.54
2019-03-26T11:49:08.998Z,51.61
2019-03-26T11:51:41.541Z,52.51
2019-03-26T11:54:14.057Z,51.37
2019-03-26T11:56:46.552Z,51.20
2019-03-26T11:59:19.099Z,51.21
2019-03-26T12:01:52.624Z,50.93
2019-03-26T12:04:25.194Z,50.65
2019-03-26T12:06:57.706Z,50.77
2019-03-26T12:09:30.238Z,49.75
2019-03-26T12:12:02.796Z,49.87
2019-03-26T12:14:35.292Z,48.80
2019-03-26T12:17:07.782Z,47.98
2019-03-26T12:19:40.314Z,45.70
2019-03-26T12:22:12.871Z,45.08
2019-03-26T12:24:45.410Z,46.25
2019-03-26T12:27:17.896Z,45.79
2019-03-26T12:29:50.513Z,46.14
2019-03-26T12:32:23.068Z,45.79
2019-03-26T12:34:55.598Z,46.02
2019-03-26T12:37:28.237Z,46.54
2019-03-26T12:40:01.132Z,45.27
2019-03-26T12:42:33.714Z,45.27
2019-03-26T12:45:07.164Z,45.09
2019-03-26T12:47:39.878Z,45.31
2019-03-26T12:50:12.553Z,43.56
2019-03-26T12:52:45.078Z,44.21
2019-03-26T12:55:17.664Z,46.24
2019-03-26T12:57:50.176Z,47.43
2019-03-26T13:00:29.926Z,47.43
2019-03-26T13:03:02.495Z,47.36
2019-03-26T13:05:34.995Z,46.77
2019-03-26T13:08:07.578Z,44.64
2019-03-26T13:10:52.913Z,44.64
2019-03-26T13:13:14.526Z,45.08
2019-03-26T13:15:47.051Z,44.01
2019-03-26T13:18:19.601Z,45.34
2019-03-26T13:20:52.099Z,45.34
2019-03-26T13:23:24.626Z,46.73
2019-03-26T13:25:57.181Z,47.24
2019-03-26T13:28:29.684Z,47.59
2019-03-26T13:31:02.168Z,48.54
2019-03-26T13:33:34.700Z,48.82
2019-03-26T13:36:07.200Z,47.58
2019-03-26T13:38:39.715Z,47.05
2019-03-26T13:41:12.313Z,48.02
2019-03-26T13:43:44.863Z,47.83
2019-03-26T13:46:17.399Z,47.92
2019-03-26T13:48:49.939Z,47.49
2019-03-26T13:51:22.482Z,47.17
2019-03-26T13:53:55.006Z,47.54
2019-03-26T13:56:27.552Z,46.29
2019-03-26T13:59:00.176Z,46.72
2019-03-26T14:01:32.719Z,44.50
2019-03-26T14:04:05.242Z,44.50
2019-03-26T14:06:37.759Z,44.43
2019-03-26T14:09:10.298Z,45.14
2019-03-26T14:11:42.808Z,45.80
2019-03-26T14:14:15.351Z,46.07
2019-03-26T14:16:47.854Z,46.06
2019-03-26T14:19:20.456Z,45.72
2019-03-26T14:21:52.998Z,46.29
2019-03-26T14:24:25.530Z,46.33
2019-03-26T14:26:58.049Z,46.53
2019-03-26T14:29:30.615Z,46.98
2019-03-26T14:32:03.134Z,46.28
2019-03-26T14:34:35.720Z,44.62
2019-03-26T14:37:08.236Z,45.29
2019-03-26T14:39:40.769Z,45.94
2019-03-26T14:42:13.283Z,44.32
2019-03-26T14:44:45.841Z,44.32
2019-03-26T14:47:18.356Z,45.02
2019-03-26T14:49:50.918Z,44.57
2019-03-26T14:52:23.469Z,44.93
2019-03-26T14:54:56.072Z,45.25
2019-03-26T14:57:28.667Z,45.82
2019-03-26T15:00:01.302Z,46.37
2019-03-26T15:02:33.813Z,46.86
2019-03-26T15:05:06.515Z,46.87
2019-03-26T15:07:39.137Z,46.83
2019-03-26T15:10:11.785Z,46.75
2019-03-26T15:12:44.375Z,45.76
2019-03-26T15:15:16.908Z,44.81
2019-03-26T15:17:49.494Z,44.66
2019-03-26T15:20:22.004Z,44.79
2019-03-26T15:22:57.832Z,44.58
2019-03-26T15:25:28.979Z,45.19
2019-03-26T15:28:01.512Z,44.99
2019-03-26T15:30:34.062Z,45.31
2019-03-26T15:33:06.640Z,45.84
2019-03-26T15:35:39.162Z,45.99
2019-03-26T15:38:11.722Z,46.98
2019-03-26T15:40:44.239Z,46.54
2019-03-26T15:43:16.848Z,46.12
2019-03-26T15:45:49.363Z,45.50
2019-03-26T15:48:21.971Z,46.79
2019-03-26T15:50:54.673Z,46.96
2019-03-26T15:53:27.352Z,47.26
2019-03-26T15:55:59.872Z,47.85
2019-03-26T15:58:32.490Z,48.11
2019-03-26T16:01:05.015Z,47.66
2019-03-26T16:03:37.540Z,46.98
2019-03-26T16:06:10.054Z,46.74
2019-03-26T16:08:42.665Z,47.41
2019-03-26T16:11:15.252Z,47.62
2019-03-26T16:13:47.772Z,47.80
2019-03-26T16:16:20.298Z,48.45
2019-03-26T16:18:52.848Z,48.13
2019-03-26T16:21:25.412Z,48.01
2019-03-26T16:23:58.092Z,47.98
2019-03-26T16:26:30.648Z,48.00
2019-03-26T16:29:03.273Z,48.08
2019-03-26T16:31:35.826Z,48.44
2019-03-26T16:34:08.389Z,47.95
2019-03-26T16:36:40.898Z,48.25
2019-03-26T16:39:23.158Z,48.47
2019-03-26T16:41:55.749Z,48.78
2019-03-26T16:44:28.363Z,48.77
2019-03-26T16:47:00.888Z,48.60
2019-03-26T16:49:34.376Z,48.92
2019-03-26T16:52:06.896Z,48.93
2019-03-26T16:54:39.463Z,49.06
2019-03-26T16:57:12.014Z,49.20
2019-03-26T16:59:44.641Z,49.11
2019-03-26T17:02:17.249Z,49.86
2019-03-26T17:04:49.855Z,50.29
2019-03-26T17:07:22.369Z,50.06
2019-03-26T17:09:54.950Z,49.71
2019-03-26T17:12:27.472Z,49.82
2019-03-26T17:15:00.347Z,49.84
2019-03-26T17:17:32.916Z,49.88
2019-03-26T17:20:05.878Z,50.24
2019-03-26T17:22:38.432Z,49.90
2019-03-26T17:25:10.991Z,50.23
2019-03-26T17:27:43.584Z,50.24
2019-03-26T17:30:16.153Z,50.68
2019-03-26T17:32:48.718Z,50.93
2019-03-26T17:35:21.277Z,50.81
2019-03-26T17:37:59.497Z,51.11
2019-03-26T17:40:28.368Z,51.08
2019-03-26T17:43:00.902Z,50.89
2019-03-26T17:45:33.593Z,50.78
2019-03-26T17:48:06.170Z,51.19
2019-03-26T17:50:38.769Z,51.12
2019-03-26T17:53:11.304Z,51.27
2019-03-26T17:55:43.899Z,51.44
2019-03-26T17:58:16.433Z,51.69
2019-03-26T18:00:49.063Z,52.09
2019-03-26T18:03:26.681Z,51.83
2019-03-26T18:05:56.078Z,52.46
2019-03-26T18:08:28.773Z,52.66
2019-03-26T18:11:01.452Z,52.45
2019-03-26T18:13:34.017Z,52.65
2019-03-26T18:16:06.595Z,52.99
2019-03-26T18:18:39.209Z,53.05
2019-03-26T18:21:11.764Z,53.06
2019-03-26T18:23:44.350Z,52.84
2019-03-26T18:26:17.216Z,52.72
2019-03-26T18:28:49.784Z,53.22
2019-03-26T18:31:22.665Z,53.19
2019-03-26T18:33:55.403Z,53.67
2019-03-26T18:36:27.958Z,53.82
2019-03-26T18:39:00.588Z,53.73
2019-03-26T18:41:33.198Z,54.19
2019-03-26T18:44:05.829Z,54.55
2019-03-26T18:46:38.392Z,54.76
2019-03-26T18:49:11.007Z,54.46
2019-03-26T18:51:43.654Z,54.05
2019-03-26T18:54:16.237Z,53.90
2019-03-26T18:56:48.793Z,53.92
2019-03-26T18:59:21.351Z,54.00
2019-03-26T19:01:53.918Z,53.99
2019-03-26T19:04:26.534Z,53.73
2019-03-26T19:06:59.163Z,53.80
2019-03-26T19:09:31.820Z,53.66
2019-03-26T19:12:04.675Z,53.68
2019-03-26T19:14:37.305Z,53.70
2019-03-26T19:17:09.973Z,53.85
2019-03-26T19:19:42.614Z,53.91
2019-03-26T19:22:15.198Z,53.87
2019-03-26T19:24:47.817Z,54.19
2019-03-26T19:27:20.409Z,54.69
2019-03-26T19:29:53.080Z,55.18
2019-03-26T19:32:25.674Z,55.63
2019-03-26T19:34:58.301Z,55.44
2019-03-26T19:37:30.875Z,55.40
2019-03-26T19:40:04.024Z,55.72
2019-03-26T19:42:36.561Z,55.61
2019-03-26T19:45:09.311Z,55.81
2019-03-26T19:47:41.889Z,56.12
2019-03-26T19:50:14.745Z,55.94
2019-03-26T19:52:47.334Z,56.42
2019-03-26T19:55:20.111Z,56.84
2019-03-26T19:57:52.702Z,57.16
2019-03-26T20:00:26.880Z,57.81
2019-03-26T20:02:59.586Z,57.88
2019-03-26T20:05:35.231Z,58.01
2019-03-26T20:08:06.629Z,58.34
2019-03-26T20:10:39.213Z,58.56
2019-03-26T20:13:23.749Z,58.96
2019-03-26T20:15:46.605Z,58.54
2019-03-26T20:18:19.263Z,58.82
2019-03-26T20:20:51.886Z,59.28
2019-03-26T20:23:24.452Z,58.75
2019-03-26T20:25:57.071Z,59.12
2019-03-26T20:28:29.699Z,59.22
2019-03-26T20:31:02.309Z,59.05
2019-03-26T20:33:34.920Z,59.16
2019-03-26T20:36:07.560Z,59.70
2019-03-26T20:38:40.127Z,59.62
2019-03-26T20:41:12.727Z,59.68
2019-03-26T20:43:45.403Z,59.75
2019-03-26T20:46:18.003Z,60.13
2019-03-26T20:48:50.613Z,60.32
2019-03-26T20:51:23.208Z,60.70
2019-03-26T20:53:55.859Z,60.93
2019-03-26T20:56:28.439Z,61.24
2019-03-26T20:59:01.442Z,61.57
2019-03-26T21:01:33.997Z,61.33
2019-03-26T21:04:06.601Z,61.23
2019-03-26T21:06:39.180Z,61.32
2019-03-26T21:09:11.750Z,61.41
2019-03-26T21:11:44.460Z,61.37
2019-03-26T21:14:17.228Z,61.52
2019-03-26T21:16:49.740Z,61.53
2019-03-26T21:19:22.334Z,61.73
2019-03-26T21:21:54.896Z,61.73
2019-03-26T21:24:27.539Z,61.49
2019-03-26T21:27:00.133Z,61.38
2019-03-26T21:29:32.748Z,61.92
2019-03-26T21:32:05.348Z,61.86
2019-03-26T21:34:38.082Z,62.15
2019-03-26T21:37:10.751Z,62.08
2019-03-26T21:39:43.342Z,61.53
2019-03-26T21:42:15.874Z,61.63
2019-03-26T21:44:48.468Z,61.64
2019-03-26T21:47:21.023Z,61.55
2019-03-26T21:49:53.639Z,61.44
2019-03-26T21:52:26.221Z,61.46
2019-03-26T21:54:58.816Z,61.86
2019-03-26T21:57:31.354Z,62.01
2019-03-26T22:00:05.274Z,62.01
2019-03-26T22:02:37.812Z,62.22
2019-03-26T22:05:10.406Z,62.11
2019-03-26T22:07:42.923Z,62.13
2019-03-26T22:10:15.614Z,62.06
2019-03-26T22:12:48.174Z,61.55
2019-03-26T22:15:20.756Z,61.57
2019-03-26T22:17:53.267Z,61.73
2019-03-26T22:20:25.813Z,61.82
2019-03-26T22:22:58.473Z,61.92
2019-03-26T22:25:31.093Z,62.28
2019-03-26T22:28:03.583Z,62.92
2019-03-26T22:30:36.147Z,62.93
2019-03-26T22:33:08.647Z,63.02
2019-03-26T22:35:41.198Z,63.21
2019-03-26T22:38:13.684Z,63.33
2019-03-26T22:40:46.256Z,63.15
2019-03-26T22:43:18.825Z,63.28
2019-03-26T22:45:51.322Z,63.30
2019-03-26T22:48:23.897Z,63.24
2019-03-26T22:50:56.415Z,63.11
2019-03-26T22:53:28.984Z,63.79
2019-03-26T22:56:01.495Z,63.71
2019-03-26T22:58:34.029Z,63.93
2019-03-26T23:01:06.634Z,64.38
2019-03-26T23:03:39.162Z,64.35
2019-03-26T23:06:11.705Z,64.29
2019-03-26T23:08:44.220Z,64.48
2019-03-26T23:11:16.736Z,64.35
2019-03-26T23:13:49.288Z,64.52
2019-03-26T23:16:21.798Z,64.67
2019-03-26T23:18:54.371Z,64.75
2019-03-26T23:21:26.897Z,64.73
2019-03-26T23:23:59.411Z,64.73
2019-03-26T23:26:31.922Z,65.10
2019-03-26T23:29:04.455Z,64.86
2019-03-26T23:31:36.931Z,65.00
2019-03-26T23:34:09.462Z,65.16
2019-03-26T23:36:41.951Z,65.18
2019-03-26T23:39:14.490Z,65.22
2019-03-26T23:41:46.989Z,65.00
2019-03-26T23:44:25.826Z,64.99
2019-03-26T23:46:53.909Z,65.19
2019-03-26T23:49:26.416Z,65.24
2019-03-26T23:51:58.911Z,65.42
2019-03-26T23:54:31.434Z,65.78
2019-03-26T23:57:03.928Z,66.08
2019-03-26T23:59:36.438Z,65.78
